sensor_id;sensor_type;location;lat;lon;timestamp;temperature;humidity
40660;DHT22;26753;45.544;9.232;2023-04-01T00:00:18;11.60;99.90
40660;DHT22;26753;45.544;9.232;2023-04-01T00:05:10;11.60;99.90
40660;DHT22;26753;45.544;9.232;2023-04-01T00:07:36;11.80;99.90
40660;DHT22;26753;45.544;9.232;2023-04-01T00:10:03;11.90;99.90
40660;DHT22;26753;45.544;9.232;2023-04-01T00:12:29;11.10;99.90
40660;DHT22;26753;45.544;9.232;2023-04-01T00:14:55;11.50;99.90
40660;DHT22;26753;45.544;9.232;2023-04-01T00:17:20;11.00;99.90
40660;DHT22;26753;45.544;9.232;2023-04-01T00:20:02;11.30;99.90
40660;DHT22;26753;45.544;9.232;2023-04-01T00:22:31;12.20;99.90
40660;DHT22;26753;45.544;9.232;2023-04-01T00:24:57;10.50;99.90
40660;DHT22;26753;45.544;9.232;2023-04-01T00:27:23;11.60;99.90
40660;DHT22;26753;45.544;9.232;2023-04-01T00:29:48;11.00;99.90
40660;DHT22;26753;45.544;9.232;2023-04-01T00:32:14;10.20;99.90
40660;DHT22;26753;45.544;9.232;2023-04-01T00:34:43;12.20;99.90
40660;DHT22;26753;45.544;9.232;2023-04-01T00:37:09;9.10;99.90
40660;DHT22;26753;45.544;9.232;2023-04-01T00:39:36;11.00;99.90
40660;DHT22;26753;45.544;9.232;2023-04-01T00:42:02;11.00;99.90
40660;DHT22;26753;45.544;9.232;2023-04-01T00:46:55;10.50;99.90
40660;DHT22;26753;45.544;9.232;2023-04-01T00:49:22;10.10;99.90
40660;DHT22;26753;45.544;9.232;2023-04-01T00:51:50;12.30;99.90
40660;DHT22;26753;45.544;9.232;2023-04-01T00:54:17;9.30;99.90
40660;DHT22;26753;45.544;9.232;2023-04-01T00:56:45;11.00;99.90
40660;DHT22;26753;45.544;9.232;2023-04-01T00:59:25;12.80;99.90
40660;DHT22;26753;45.544;9.232;2023-04-01T01:01:52;9.50;99.90
40660;DHT22;26753;45.544;9.232;2023-04-01T01:04:24;9.70;99.90
40660;DHT22;26753;45.544;9.232;2023-04-01T01:09:25;11.70;99.90
40660;DHT22;26753;45.544;9.232;2023-04-01T01:14:47;10.70;99.90
40660;DHT22;26753;45.544;9.232;2023-04-01T01:17:21;10.20;99.90
40660;DHT22;26753;45.544;9.232;2023-04-01T01:25:32;9.30;99.90
40660;DHT22;26753;45.544;9.232;2023-04-01T01:35:53;8.90;99.90
40660;DHT22;26753;45.544;9.232;2023-04-01T01:38:21;11.70;99.90
40660;DHT22;26753;45.544;9.232;2023-04-01T01:40:51;11.20;99.90
40660;DHT22;26753;45.544;9.232;2023-04-01T01:43:22;10.00;99.90
40660;DHT22;26753;45.544;9.232;2023-04-01T01:45:49;7.80;99.90
40660;DHT22;26753;45.544;9.232;2023-04-01T01:48:16;11.80;99.90
40660;DHT22;26753;45.544;9.232;2023-04-01T01:50:43;11.60;99.90
40660;DHT22;26753;45.544;9.232;2023-04-01T01:53:10;8.70;99.90
40660;DHT22;26753;45.544;9.232;2023-04-01T01:55:40;8.00;99.90
40660;DHT22;26753;45.544;9.232;2023-04-01T02:00:46;11.40;99.90
40660;DHT22;26753;45.544;9.232;2023-04-01T02:03:13;10.10;99.90
40660;DHT22;26753;45.544;9.232;2023-04-01T02:05:43;8.30;99.90
40660;DHT22;26753;45.544;9.232;2023-04-01T02:08:13;9.70;99.90
40660;DHT22;26753;45.544;9.232;2023-04-01T02:13:09;10.40;99.90
40660;DHT22;26753;45.544;9.232;2023-04-01T02:15:40;11.30;99.90
40660;DHT22;26753;45.544;9.232;2023-04-01T02:18:07;9.90;99.90
40660;DHT22;26753;45.544;9.232;2023-04-01T02:20:36;10.00;99.90
40660;DHT22;26753;45.544;9.232;2023-04-01T02:23:03;9.10;99.90
40660;DHT22;26753;45.544;9.232;2023-04-01T02:25:35;9.10;99.90
40660;DHT22;26753;45.544;9.232;2023-04-01T02:28:01;7.50;99.90
40660;DHT22;26753;45.544;9.232;2023-04-01T02:30:30;9.30;99.90
40660;DHT22;26753;45.544;9.232;2023-04-01T02:32:57;9.90;99.90
40660;DHT22;26753;45.544;9.232;2023-04-01T02:35:24;7.10;99.90
40660;DHT22;26753;45.544;9.232;2023-04-01T02:37:50;9.30;99.90
40660;DHT22;26753;45.544;9.232;2023-04-01T02:40:17;9.90;99.90
40660;DHT22;26753;45.544;9.232;2023-04-01T02:42:43;10.70;99.90
40660;DHT22;26753;45.544;9.232;2023-04-01T02:45:09;8.70;99.90
40660;DHT22;26753;45.544;9.232;2023-04-01T02:50:04;9.00;99.90
40660;DHT22;26753;45.544;9.232;2023-04-01T02:52:30;11.60;99.90
40660;DHT22;26753;45.544;9.232;2023-04-01T02:54:56;10.00;99.90
40660;DHT22;26753;45.544;9.232;2023-04-01T02:59:48;9.90;99.90
40660;DHT22;26753;45.544;9.232;2023-04-01T03:02:14;11.80;99.90
40660;DHT22;26753;45.544;9.232;2023-04-01T03:04:40;11.00;99.90
40660;DHT22;26753;45.544;9.232;2023-04-01T03:07:11;9.20;99.90
40660;DHT22;26753;45.544;9.232;2023-04-01T03:09:40;8.90;99.90
40660;DHT22;26753;45.544;9.232;2023-04-01T03:12:06;9.80;99.90
40660;DHT22;26753;45.544;9.232;2023-04-01T03:14:32;7.20;99.90
40660;DHT22;26753;45.544;9.232;2023-04-01T03:19:23;9.00;99.90
40660;DHT22;26753;45.544;9.232;2023-04-01T03:21:49;7.60;99.90
40660;DHT22;26753;45.544;9.232;2023-04-01T03:24:14;9.90;99.90
40660;DHT22;26753;45.544;9.232;2023-04-01T03:26:40;10.00;99.90
40660;DHT22;26753;45.544;9.232;2023-04-01T03:29:06;8.80;99.90
40660;DHT22;26753;45.544;9.232;2023-04-01T03:31:32;9.60;99.90
40660;DHT22;26753;45.544;9.232;2023-04-01T03:33:57;9.70;99.90
40660;DHT22;26753;45.544;9.232;2023-04-01T03:38:49;9.60;99.90
40660;DHT22;26753;45.544;9.232;2023-04-01T03:43:43;9.10;99.90
40660;DHT22;26753;45.544;9.232;2023-04-01T03:46:08;10.50;99.90
40660;DHT22;26753;45.544;9.232;2023-04-01T03:48:34;9.80;99.90
40660;DHT22;26753;45.544;9.232;2023-04-01T03:51:00;9.80;99.90
40660;DHT22;26753;45.544;9.232;2023-04-01T03:53:25;10.40;99.90
40660;DHT22;26753;45.544;9.232;2023-04-01T03:55:52;9.50;99.90
40660;DHT22;26753;45.544;9.232;2023-04-01T03:58:18;9.10;99.90
40660;DHT22;26753;45.544;9.232;2023-04-01T04:00:43;10.60;99.90
40660;DHT22;26753;45.544;9.232;2023-04-01T04:03:09;9.90;99.90
40660;DHT22;26753;45.544;9.232;2023-04-01T04:05:35;10.00;99.90
40660;DHT22;26753;45.544;9.232;2023-04-01T04:08:01;10.00;99.90
40660;DHT22;26753;45.544;9.232;2023-04-01T04:10:27;10.70;99.90
40660;DHT22;26753;45.544;9.232;2023-04-01T04:12:54;9.10;99.90
40660;DHT22;26753;45.544;9.232;2023-04-01T04:15:19;8.70;99.90
40660;DHT22;26753;45.544;9.232;2023-04-01T04:17:45;10.70;99.90
40660;DHT22;26753;45.544;9.232;2023-04-01T04:20:11;9.00;99.90
40660;DHT22;26753;45.544;9.232;2023-04-01T04:22:37;8.20;99.90
40660;DHT22;26753;45.544;9.232;2023-04-01T04:25:03;10.20;99.90
40660;DHT22;26753;45.544;9.232;2023-04-01T04:27:28;9.60;99.90
40660;DHT22;26753;45.544;9.232;2023-04-01T04:29:54;10.90;99.90
40660;DHT22;26753;45.544;9.232;2023-04-01T04:32:20;8.80;99.90
40660;DHT22;26753;45.544;9.232;2023-04-01T04:34:45;8.20;99.90
40660;DHT22;26753;45.544;9.232;2023-04-01T04:37:11;8.00;99.90
40660;DHT22;26753;45.544;9.232;2023-04-01T04:39:36;9.30;99.90
40660;DHT22;26753;45.544;9.232;2023-04-01T04:42:02;6.50;99.90
40660;DHT22;26753;45.544;9.232;2023-04-01T04:44:28;6.20;99.90
40660;DHT22;26753;45.544;9.232;2023-04-01T04:46:53;8.80;99.90
40660;DHT22;26753;45.544;9.232;2023-04-01T04:49:19;9.60;99.90
40660;DHT22;26753;45.544;9.232;2023-04-01T04:51:45;9.30;99.90
40660;DHT22;26753;45.544;9.232;2023-04-01T04:54:10;10.30;99.90
40660;DHT22;26753;45.544;9.232;2023-04-01T04:56:36;8.30;99.90
40660;DHT22;26753;45.544;9.232;2023-04-01T04:59:02;9.80;99.90
40660;DHT22;26753;45.544;9.232;2023-04-01T05:01:27;10.20;99.90
40660;DHT22;26753;45.544;9.232;2023-04-01T05:03:53;9.80;99.90
40660;DHT22;26753;45.544;9.232;2023-04-01T05:06:19;9.00;99.90
40660;DHT22;26753;45.544;9.232;2023-04-01T05:08:45;11.80;99.90
40660;DHT22;26753;45.544;9.232;2023-04-01T05:11:12;11.30;99.90
40660;DHT22;26753;45.544;9.232;2023-04-01T05:13:38;9.70;99.90
40660;DHT22;26753;45.544;9.232;2023-04-01T05:16:07;8.40;99.90
40660;DHT22;26753;45.544;9.232;2023-04-01T05:18:33;10.40;99.90
40660;DHT22;26753;45.544;9.232;2023-04-01T05:20:59;8.40;99.90
40660;DHT22;26753;45.544;9.232;2023-04-01T05:25:50;9.70;99.90
40660;DHT22;26753;45.544;9.232;2023-04-01T05:28:18;9.50;99.90
40660;DHT22;26753;45.544;9.232;2023-04-01T05:30:44;8.40;99.90
40660;DHT22;26753;45.544;9.232;2023-04-01T05:33:10;11.30;99.90
40660;DHT22;26753;45.544;9.232;2023-04-01T05:35:36;8.50;99.90
40660;DHT22;26753;45.544;9.232;2023-04-01T05:38:02;6.90;99.90
40660;DHT22;26753;45.544;9.232;2023-04-01T05:40:28;9.80;99.90
40660;DHT22;26753;45.544;9.232;2023-04-01T05:42:53;9.50;99.90
40660;DHT22;26753;45.544;9.232;2023-04-01T05:45:19;8.70;99.90
40660;DHT22;26753;45.544;9.232;2023-04-01T05:47:45;9.30;99.90
40660;DHT22;26753;45.544;9.232;2023-04-01T05:50:21;12.30;99.90
40660;DHT22;26753;45.544;9.232;2023-04-01T05:52:47;10.10;99.90
40660;DHT22;26753;45.544;9.232;2023-04-01T05:55:12;11.10;99.90
40660;DHT22;26753;45.544;9.232;2023-04-01T05:57:40;9.90;99.90
40660;DHT22;26753;45.544;9.232;2023-04-01T06:00:10;11.60;99.90
40660;DHT22;26753;45.544;9.232;2023-04-01T06:02:45;9.40;99.90
40660;DHT22;26753;45.544;9.232;2023-04-01T06:05:18;10.40;99.90
40660;DHT22;26753;45.544;9.232;2023-04-01T06:07:47;9.60;99.90
40660;DHT22;26753;45.544;9.232;2023-04-01T06:10:16;11.40;99.90
40660;DHT22;26753;45.544;9.232;2023-04-01T06:15:25;9.50;99.90
40660;DHT22;26753;45.544;9.232;2023-04-01T06:30:24;11.40;99.90
40660;DHT22;26753;45.544;9.232;2023-04-01T06:33:10;12.60;99.90
40660;DHT22;26753;45.544;9.232;2023-04-01T06:38:17;9.20;99.90
40660;DHT22;26753;45.544;9.232;2023-04-01T06:40:57;10.30;99.90
40660;DHT22;26753;45.544;9.232;2023-04-01T06:46:09;11.80;99.90
40660;DHT22;26753;45.544;9.232;2023-04-01T06:54:15;11.40;99.90
40660;DHT22;26753;45.544;9.232;2023-04-01T06:56:42;11.00;99.90
40660;DHT22;26753;45.544;9.232;2023-04-01T06:59:15;12.40;99.90
40660;DHT22;26753;45.544;9.232;2023-04-01T07:01:52;12.10;99.90
40660;DHT22;26753;45.544;9.232;2023-04-01T07:04:32;13.70;99.90
40660;DHT22;26753;45.544;9.232;2023-04-01T07:07:03;13.50;99.90
40660;DHT22;26753;45.544;9.232;2023-04-01T07:09:37;11.80;99.90
40660;DHT22;26753;45.544;9.232;2023-04-01T07:14:48;13.80;99.90
40660;DHT22;26753;45.544;9.232;2023-04-01T07:17:21;13.50;99.90
40660;DHT22;26753;45.544;9.232;2023-04-01T07:22:35;13.30;99.90
40660;DHT22;26753;45.544;9.232;2023-04-01T07:27:47;11.50;99.90
40660;DHT22;26753;45.544;9.232;2023-04-01T07:30:18;12.90;99.90
40660;DHT22;26753;45.544;9.232;2023-04-01T07:32:47;13.70;99.90
40660;DHT22;26753;45.544;9.232;2023-04-01T07:48:42;14.00;99.90
40660;DHT22;26753;45.544;9.232;2023-04-01T07:51:20;15.70;99.90
40660;DHT22;26753;45.544;9.232;2023-04-01T07:53:58;14.40;99.90
40660;DHT22;26753;45.544;9.232;2023-04-01T07:56:41;14.20;99.90
40660;DHT22;26753;45.544;9.232;2023-04-01T08:06:53;14.40;99.90
40660;DHT22;26753;45.544;9.232;2023-04-01T08:22:22;14.60;99.90
40660;DHT22;26753;45.544;9.232;2023-04-01T08:24:48;14.20;99.90
40660;DHT22;26753;45.544;9.232;2023-04-01T08:27:17;14.00;99.90
40660;DHT22;26753;45.544;9.232;2023-04-01T08:29:48;15.50;99.90
40660;DHT22;26753;45.544;9.232;2023-04-01T08:32:16;15.20;99.90
40660;DHT22;26753;45.544;9.232;2023-04-01T08:34:44;14.70;99.90
40660;DHT22;26753;45.544;9.232;2023-04-01T08:37:14;15.80;99.90
40660;DHT22;26753;45.544;9.232;2023-04-01T08:39:46;14.50;99.90
40660;DHT22;26753;45.544;9.232;2023-04-01T08:49:47;15.20;99.90
40660;DHT22;26753;45.544;9.232;2023-04-01T09:21:37;16.50;99.90
40660;DHT22;26753;45.544;9.232;2023-04-01T09:34:17;17.30;99.90
40660;DHT22;26753;45.544;9.232;2023-04-01T09:36:46;17.40;99.90
40660;DHT22;26753;45.544;9.232;2023-04-01T09:39:29;17.50;99.90
40660;DHT22;26753;45.544;9.232;2023-04-01T09:49:42;17.70;99.90
40660;DHT22;26753;45.544;9.232;2023-04-01T09:52:26;17.90;99.90
40660;DHT22;26753;45.544;9.232;2023-04-01T10:00:01;18.20;98.50
40660;DHT22;26753;45.544;9.232;2023-04-01T10:10:47;18.90;96.00
40660;DHT22;26753;45.544;9.232;2023-04-01T10:13:22;19.00;95.10
40660;DHT22;26753;45.544;9.232;2023-04-01T10:18:51;19.20;94.20
40660;DHT22;26753;45.544;9.232;2023-04-01T10:21:39;19.30;92.10
40660;DHT22;26753;45.544;9.232;2023-04-01T10:24:10;19.40;91.60
40660;DHT22;26753;45.544;9.232;2023-04-01T10:26:47;19.60;90.30
40660;DHT22;26753;45.544;9.232;2023-04-01T11:08:13;21.00;81.50
40660;DHT22;26753;45.544;9.232;2023-04-01T11:31:26;21.90;80.90
40660;DHT22;26753;45.544;9.232;2023-04-01T11:34:21;21.90;79.70
40660;DHT22;26753;45.544;9.232;2023-04-01T11:44:19;22.40;75.40
40660;DHT22;26753;45.544;9.232;2023-04-01T11:52:33;22.80;74.30
40660;DHT22;26753;45.544;9.232;2023-04-01T12:07:44;23.70;65.00
40660;DHT22;26753;45.544;9.232;2023-04-01T12:13:00;24.30;61.60
40660;DHT22;26753;45.544;9.232;2023-04-01T12:26:31;37.00;46.30
40660;DHT22;26753;45.544;9.232;2023-04-01T12:31:53;40.30;42.00
40660;DHT22;26753;45.544;9.232;2023-04-01T12:34:43;39.80;41.30
40660;DHT22;26753;45.544;9.232;2023-04-01T12:44:56;38.50;38.70
40660;DHT22;26753;45.544;9.232;2023-04-01T12:55:20;34.60;38.50
40660;DHT22;26753;45.544;9.232;2023-04-01T13:11:07;45.00;35.80
40660;DHT22;26753;45.544;9.232;2023-04-01T13:16:29;40.40;34.80
40660;DHT22;26753;45.544;9.232;2023-04-01T13:27:10;47.00;34.10
40660;DHT22;26753;45.544;9.232;2023-04-01T13:42:13;42.00;32.10
40660;DHT22;26753;45.544;9.232;2023-04-01T14:08:42;37.90;33.90
40660;DHT22;26753;45.544;9.232;2023-04-01T14:11:16;37.40;33.40
40660;DHT22;26753;45.544;9.232;2023-04-01T14:13:51;36.90;33.00
40660;DHT22;26753;45.544;9.232;2023-04-01T14:16:23;37.60;34.00
40660;DHT22;26753;45.544;9.232;2023-04-01T14:34:11;38.00;33.60
40660;DHT22;26753;45.544;9.232;2023-04-01T14:41:59;37.10;33.20
40660;DHT22;26753;45.544;9.232;2023-04-01T14:44:48;37.00;33.10
40660;DHT22;26753;45.544;9.232;2023-04-01T14:47:22;37.50;33.30
40660;DHT22;26753;45.544;9.232;2023-04-01T14:49:53;38.50;33.50
40660;DHT22;26753;45.544;9.232;2023-04-01T14:52:28;39.30;32.60
40660;DHT22;26753;45.544;9.232;2023-04-01T14:54:55;39.80;33.10
40660;DHT22;26753;45.544;9.232;2023-04-01T14:57:28;39.90;33.10
40660;DHT22;26753;45.544;9.232;2023-04-01T15:04:56;37.30;32.90
40660;DHT22;26753;45.544;9.232;2023-04-01T15:10:22;35.10;32.90
40660;DHT22;26753;45.544;9.232;2023-04-01T15:18:09;35.80;33.20
40660;DHT22;26753;45.544;9.232;2023-04-01T15:20:43;34.40;33.10
40660;DHT22;26753;45.544;9.232;2023-04-01T15:43:48;27.70;36.40
40660;DHT22;26753;45.544;9.232;2023-04-01T15:51:23;27.30;37.10
40660;DHT22;26753;45.544;9.232;2023-04-01T16:09:39;26.90;37.40
40660;DHT22;26753;45.544;9.232;2023-04-01T16:17:08;26.10;38.10
40660;DHT22;26753;45.544;9.232;2023-04-01T16:27:42;25.70;39.20
40660;DHT22;26753;45.544;9.232;2023-04-01T16:38:03;24.60;38.90
40660;DHT22;26753;45.544;9.232;2023-04-01T16:43:13;24.10;39.30
40660;DHT22;26753;45.544;9.232;2023-04-01T16:45:43;23.80;39.60
40660;DHT22;26753;45.544;9.232;2023-04-01T16:48:58;23.70;39.70
40660;DHT22;26753;45.544;9.232;2023-04-01T16:51:07;23.50;39.80
40660;DHT22;26753;45.544;9.232;2023-04-01T16:56:22;23.00;40.20
40660;DHT22;26753;45.544;9.232;2023-04-01T17:06:45;22.50;40.70
40660;DHT22;26753;45.544;9.232;2023-04-01T17:09:30;22.50;40.80
40660;DHT22;26753;45.544;9.232;2023-04-01T17:12:09;22.50;40.90
40660;DHT22;26753;45.544;9.232;2023-04-01T17:22:40;22.40;41.20
40660;DHT22;26753;45.544;9.232;2023-04-01T17:42:53;21.80;42.30
40660;DHT22;26753;45.544;9.232;2023-04-01T17:47:58;21.80;42.60
40660;DHT22;26753;45.544;9.232;2023-04-01T17:50:42;21.70;42.60
40660;DHT22;26753;45.544;9.232;2023-04-01T17:55:40;21.60;43.10
40660;DHT22;26753;45.544;9.232;2023-04-01T17:58:11;21.50;43.20
40660;DHT22;26753;45.544;9.232;2023-04-01T18:03:37;21.40;43.80
40660;DHT22;26753;45.544;9.232;2023-04-01T18:06:21;21.30;43.80
40660;DHT22;26753;45.544;9.232;2023-04-01T18:08:50;21.20;44.20
40660;DHT22;26753;45.544;9.232;2023-04-01T18:11:39;21.20;44.10
40660;DHT22;26753;45.544;9.232;2023-04-01T18:19:53;21.20;44.80
40660;DHT22;26753;45.544;9.232;2023-04-01T18:22:41;21.20;45.20
40660;DHT22;26753;45.544;9.232;2023-04-01T18:27:47;20.90;45.00
40660;DHT22;26753;45.544;9.232;2023-04-01T18:30:15;20.80;45.30
40660;DHT22;26753;45.544;9.232;2023-04-01T18:32:44;20.70;45.40
40660;DHT22;26753;45.544;9.232;2023-04-01T18:38:04;20.70;45.90
40660;DHT22;26753;45.544;9.232;2023-04-01T18:40:40;20.50;46.30
40660;DHT22;26753;45.544;9.232;2023-04-01T18:45:37;20.50;46.90
40660;DHT22;26753;45.544;9.232;2023-04-01T18:50:43;20.40;46.50
40660;DHT22;26753;45.544;9.232;2023-04-01T18:55:47;20.40;46.70
40660;DHT22;26753;45.544;9.232;2023-04-01T19:01:04;20.30;47.40
40660;DHT22;26753;45.544;9.232;2023-04-01T19:06:48;20.10;47.10
40660;DHT22;26753;45.544;9.232;2023-04-01T19:09:12;20.20;47.50
40660;DHT22;26753;45.544;9.232;2023-04-01T19:11:50;20.10;47.40
40660;DHT22;26753;45.544;9.232;2023-04-01T19:24:57;20.10;47.50
40660;DHT22;26753;45.544;9.232;2023-04-01T19:35:11;19.70;48.30
40660;DHT22;26753;45.544;9.232;2023-04-01T19:37:47;19.60;48.40
40660;DHT22;26753;45.544;9.232;2023-04-01T19:45:25;19.50;48.80
40660;DHT22;26753;45.544;9.232;2023-04-01T19:48:16;19.50;48.90
40660;DHT22;26753;45.544;9.232;2023-04-01T19:50:49;19.40;49.00
40660;DHT22;26753;45.544;9.232;2023-04-01T19:53:18;19.30;49.30
40660;DHT22;26753;45.544;9.232;2023-04-01T19:55:55;19.20;49.40
40660;DHT22;26753;45.544;9.232;2023-04-01T19:58:26;19.20;49.40
40660;DHT22;26753;45.544;9.232;2023-04-01T20:00:59;19.10;49.60
40660;DHT22;26753;45.544;9.232;2023-04-01T20:16:17;18.90;49.50
40660;DHT22;26753;45.544;9.232;2023-04-01T20:18:56;18.90;49.40
40660;DHT22;26753;45.544;9.232;2023-04-01T20:26:39;18.80;49.30
40660;DHT22;26753;45.544;9.232;2023-04-01T20:31:40;18.70;49.80
40660;DHT22;26753;45.544;9.232;2023-04-01T20:34:15;18.70;49.60
40660;DHT22;26753;45.544;9.232;2023-04-01T20:36:58;18.60;49.80
40660;DHT22;26753;45.544;9.232;2023-04-01T20:39:34;18.50;50.00
40660;DHT22;26753;45.544;9.232;2023-04-01T20:42:26;18.50;50.00
40660;DHT22;26753;45.544;9.232;2023-04-01T20:44:57;18.40;50.10
40660;DHT22;26753;45.544;9.232;2023-04-01T20:53:04;18.20;50.70
40660;DHT22;26753;45.544;9.232;2023-04-01T20:55:47;18.10;50.90
40660;DHT22;26753;45.544;9.232;2023-04-01T21:03:29;18.00;51.10
40660;DHT22;26753;45.544;9.232;2023-04-01T21:08:44;17.80;51.90
40660;DHT22;26753;45.544;9.232;2023-04-01T21:20:35;17.40;53.10
40660;DHT22;26753;45.544;9.232;2023-04-01T21:25:03;17.30;53.20
40660;DHT22;26753;45.544;9.232;2023-04-01T21:30:41;17.30;53.50
40660;DHT22;26753;45.544;9.232;2023-04-01T21:46:28;17.00;54.40
40660;DHT22;26753;45.544;9.232;2023-04-01T21:54:30;17.10;54.70
40660;DHT22;26753;45.544;9.232;2023-04-01T22:02:24;16.90;55.20
40660;DHT22;26753;45.544;9.232;2023-04-01T22:05:07;17.00;55.30
40660;DHT22;26753;45.544;9.232;2023-04-01T22:07:38;16.90;55.40
40660;DHT22;26753;45.544;9.232;2023-04-01T22:12:43;16.90;55.80
40660;DHT22;26753;45.544;9.232;2023-04-01T22:15:16;16.90;56.00
40660;DHT22;26753;45.544;9.232;2023-04-01T22:25:29;16.70;56.30
40660;DHT22;26753;45.544;9.232;2023-04-01T22:30:53;16.50;57.50
40660;DHT22;26753;45.544;9.232;2023-04-01T22:33:31;16.50;57.70
40660;DHT22;26753;45.544;9.232;2023-04-01T22:36:06;16.40;57.70
40660;DHT22;26753;45.544;9.232;2023-04-01T22:43:46;16.20;57.90
40660;DHT22;26753;45.544;9.232;2023-04-01T22:56:43;15.80;59.00
40660;DHT22;26753;45.544;9.232;2023-04-01T22:59:14;15.80;59.30
40660;DHT22;26753;45.544;9.232;2023-04-01T23:01:45;15.80;59.20
40660;DHT22;26753;45.544;9.232;2023-04-01T23:04:14;15.80;59.30
40660;DHT22;26753;45.544;9.232;2023-04-01T23:06:42;15.60;59.40
40660;DHT22;26753;45.544;9.232;2023-04-01T23:09:14;15.70;59.60
40660;DHT22;26753;45.544;9.232;2023-04-01T23:11:45;15.60;59.90
40660;DHT22;26753;45.544;9.232;2023-04-01T23:16:39;15.60;60.10
40660;DHT22;26753;45.544;9.232;2023-04-01T23:19:11;15.60;60.00
40660;DHT22;26753;45.544;9.232;2023-04-01T23:21:44;15.60;60.40
40660;DHT22;26753;45.544;9.232;2023-04-01T23:24:21;15.50;60.70
40660;DHT22;26753;45.544;9.232;2023-04-01T23:26:56;15.50;60.50
40660;DHT22;26753;45.544;9.232;2023-04-01T23:29:23;15.60;60.70
40660;DHT22;26753;45.544;9.232;2023-04-01T23:32:00;15.60;60.80
40660;DHT22;26753;45.544;9.232;2023-04-01T23:34:33;15.60;60.80
40660;DHT22;26753;45.544;9.232;2023-04-01T23:37:01;15.60;61.30
40660;DHT22;26753;45.544;9.232;2023-04-01T23:39:37;15.70;61.40
40660;DHT22;26753;45.544;9.232;2023-04-01T23:42:05;15.60;61.70
40660;DHT22;26753;45.544;9.232;2023-04-01T23:44:31;15.60;61.40
40660;DHT22;26753;45.544;9.232;2023-04-01T23:46:57;15.60;62.40
40660;DHT22;26753;45.544;9.232;2023-04-01T23:49:25;15.60;61.70
40660;DHT22;26753;45.544;9.232;2023-04-01T23:52:36;15.60;61.70
40660;DHT22;26753;45.544;9.232;2023-04-01T23:54:43;15.50;61.50
40660;DHT22;26753;45.544;9.232;2023-04-01T23:57:18;15.50;61.80
40660;DHT22;26753;45.544;9.232;2023-04-01T23:59:58;15.50;62.20
